Pietro Novelli — IOTQ — position and weather

sailwx.info

Track history (hours):
 
Tides and Currents Weather Stations Pressure Air Temp Water Temp Dewpoint Dewpoint Depression Visibility Wind Speed Wind Dir Waves Ship Positions

Pietro Novelli

Last reported at 2016-Sep-24 22:10 UTC. Time now 2016-Sep-25 12:22 UTC.
Position N 37°51' E 012°22'.

Length 91 m; draft 3.7 m.

Type: Ship. MMSI: 247000300.

Date/timePositionNaut miles runAvg speedWind from/ knotsBaromVisibWave heightAir tempDewpointWater temp
2016-Sep-24 22:10N 37°51' E 012°22'712.3
2016-Sep-24 21:33N 37°58' E 012°26'5 2.4
2016-Sep-24 19:33N 38°01' E 012°30'0 0.0
2016-Sep-24 18:33N 38°01' E 012°30'0 0.0
2016-Sep-24 17:33N 38°01' E 012°30'0 0.0
2016-Sep-24 16:33N 38°01' E 012°30'0 0.0
2016-Sep-23 19:33N 38°01' E 012°30'0 0.0
2016-Sep-23 17:33N 38°01' E 012°30'0 0.0
2016-Sep-23 16:33N 38°01' E 012°30'1 1.3
2016-Sep-23 15:33N 37°60' E 012°29'1 0.1
2016-Sep-22 20:33N 38°01' E 012°30'14 0.6
2016-Sep-21 22:22N 37°49' E 012°21'14 5.0
2016-Sep-21 19:33N 38°01' E 012°30'0 0.0
2016-Sep-21 16:33N 38°01' E 012°30'9 0.3
2016-Sep-20 06:33N 37°54' E 012°22'9 2.2
2016-Sep-20 02:19N 38°01' E 012°30'0 0.0
2016-Sep-19 23:06N 38°01' E 012°30'0 0.0
2016-Sep-19 19:24N 38°01' E 012°30'0 0.0
2016-Sep-19 18:28N 38°01' E 012°30'0 0.0
2016-Sep-19 16:21N 38°01' E 012°30'0 0.0
2016-Sep-19 14:31N 38°01' E 012°30'0 0.0
2016-Sep-19 13:33N 38°01' E 012°30'0 0.0
2016-Sep-19 12:33N 38°01' E 012°30'0 0.0
2016-Sep-19 11:33N 38°01' E 012°30'0 0.0
2016-Sep-19 09:33N 38°01' E 012°30'0 0.0
2016-Sep-19 07:33N 38°01' E 012°30'0 0.0
2016-Sep-19 06:33N 38°01' E 012°30'0 0.0
2016-Sep-19 03:33N 38°01' E 012°30'0 0.0
2016-Sep-19 02:33N 38°01' E 012°30'0 0.0
2016-Sep-19 00:33N 38°01' E 012°30'0 0.0
2016-Sep-18 19:32N 38°01' E 012°30'5 1.2
2016-Sep-18 15:33N 37°58' E 012°25'7013.1
2016-Sep-18 10:13N 36°52' E 011°57'61 5.1
2016-Sep-17 22:23N 37°49' E 012°21'911.3
2016-Sep-17 21:33N 37°58' E 012°26'4 4.3
2016-Sep-17 20:33N 38°01' E 012°30'0 0.0
2016-Sep-17 19:15N 38°01' E 012°30'0 0.0
2016-Sep-16 17:33N 38°01' E 012°30'5 2.5
2016-Sep-16 15:33N 37°58' E 012°25'55 4.3
2016-Sep-16 02:33N 37°06' E 012°02'2110.4
2016-Sep-16 00:33N 37°25' E 012°12'2311.4
2016-Sep-15 22:33N 37°47' E 012°20'1211.6
2016-Sep-15 21:33N 37°58' E 012°26'5 5.0
2016-Sep-15 20:33N 38°01' E 012°30'14 0.6
2016-Sep-14 22:17N 37°49' E 012°20'  
Track history (hours):
 
Tides and Currents Weather Stations Pressure Air Temp Water Temp Dewpoint Dewpoint Depression Visibility Wind Speed Wind Dir Waves Ship Positions

Pietro Novelli

Last reported at 2016-Sep-24 22:10 UTC. Time now 2016-Sep-25 12:22 UTC.
Position N 37°51' E 012°22'.

Length 91 m; draft 3.7 m.

Type: Ship. MMSI: 247000300.

Date/timePositionNaut miles runAvg speedWind from/ knotsBaromVisibWave heightAir tempDewpointWater temp
2016-Sep-24 22:10N 37°51' E 012°22'712.3
2016-Sep-24 21:33N 37°58' E 012°26'5 2.4
2016-Sep-24 19:33N 38°01' E 012°30'0 0.0
2016-Sep-24 18:33N 38°01' E 012°30'0 0.0
2016-Sep-24 17:33N 38°01' E 012°30'0 0.0
2016-Sep-24 16:33N 38°01' E 012°30'0 0.0
2016-Sep-23 19:33N 38°01' E 012°30'0 0.0
2016-Sep-23 17:33N 38°01' E 012°30'0 0.0
2016-Sep-23 16:33N 38°01' E 012°30'1 1.3
2016-Sep-23 15:33N 37°60' E 012°29'1 0.1
2016-Sep-22 20:33N 38°01' E 012°30'14 0.6
2016-Sep-21 22:22N 37°49' E 012°21'14 5.0
2016-Sep-21 19:33N 38°01' E 012°30'0 0.0
2016-Sep-21 16:33N 38°01' E 012°30'9 0.3
2016-Sep-20 06:33N 37°54' E 012°22'9 2.2
2016-Sep-20 02:19N 38°01' E 012°30'0 0.0
2016-Sep-19 23:06N 38°01' E 012°30'0 0.0
2016-Sep-19 19:24N 38°01' E 012°30'0 0.0
2016-Sep-19 18:28N 38°01' E 012°30'0 0.0
2016-Sep-19 16:21N 38°01' E 012°30'0 0.0
2016-Sep-19 14:31N 38°01' E 012°30'0 0.0
2016-Sep-19 13:33N 38°01' E 012°30'0 0.0
2016-Sep-19 12:33N 38°01' E 012°30'0 0.0
2016-Sep-19 11:33N 38°01' E 012°30'0 0.0
2016-Sep-19 09:33N 38°01' E 012°30'0 0.0
2016-Sep-19 07:33N 38°01' E 012°30'0 0.0
2016-Sep-19 06:33N 38°01' E 012°30'0 0.0
2016-Sep-19 03:33N 38°01' E 012°30'0 0.0
2016-Sep-19 02:33N 38°01' E 012°30'0 0.0
2016-Sep-19 00:33N 38°01' E 012°30'0 0.0
2016-Sep-18 19:32N 38°01' E 012°30'5 1.2
2016-Sep-18 15:33N 37°58' E 012°25'7013.1
2016-Sep-18 10:13N 36°52' E 011°57'61 5.1
2016-Sep-17 22:23N 37°49' E 012°21'911.3
2016-Sep-17 21:33N 37°58' E 012°26'4 4.3
2016-Sep-17 20:33N 38°01' E 012°30'0 0.0
2016-Sep-17 19:15N 38°01' E 012°30'0 0.0
2016-Sep-16 17:33N 38°01' E 012°30'5 2.5
2016-Sep-16 15:33N 37°58' E 012°25'55 4.3
2016-Sep-16 02:33N 37°06' E 012°02'2110.4
2016-Sep-16 00:33N 37°25' E 012°12'2311.4
2016-Sep-15 22:33N 37°47' E 012°20'1211.6
2016-Sep-15 21:33N 37°58' E 012°26'5 5.0
2016-Sep-15 20:33N 38°01' E 012°30'14 0.6
2016-Sep-14 22:17N 37°49' E 012°20'  

Dump ship's entire track history